Kostomuksha, Russia
Current Conditions -  °F | °C
As of 3:20 AM on Thursday 27 Nov 2014 (Local Time) from EFKI Reporting Station
Haze Haze  
Wind Chill: 32°   Ceiling: 200
Heat Index: 32°   Visibility: 1.1mi
Dew Point: 32°   Wind: 0mph
Humidity: 100%   Direction: NA
Pressure: 30.18"   Gusts: NA
Location:  64.68°N, 30.82°E
Report Text: EFKI 270020Z AUTO 00000KT 1800 BR OVC002 00/00 Q1022
Loading
Personal Weather Stations






























Interactive Weather Map New forecast layout! Learn more

10-Day Weather Forecast

Advertisements
Track Severe Weather on mobile